Time;durP1;ratioP1;P1;durP2;ratioP2;P2;SDS_P1;SDS_P2;PMS_P1;PMS_P2;Temp;Humidity;BMP_temperature;BMP_pressure;BME280_temperature;BME280_humidity;BME280_pressure;Samples;Min_cycle;Max_cycle;Signal;HPM_P1;HPM_P2
2022/11/29 00:01:04;;;;;;;64.27;30.70;;;;;;;-0.27;100.00;99392.67;2280275;78;20890;-83
2022/11/29 00:04:05;;;;;;;55.40;29.20;;;;;;;-0.27;99.96;99392.27;2280437;78;20903;-83
2022/11/29 00:07:05;;;;;;;61.37;30.17;;;;;;;-0.25;99.98;99393.66;2280244;78;21243;-83
2022/11/29 00:10:06;;;;;;;61.07;30.63;;;;;;;-0.26;99.88;99390.20;2280361;78;20907;-83
2022/11/29 00:13:06;;;;;;;60.63;28.87;;;;;;;-0.21;100.00;99381.51;2280184;78;20887;-83
2022/11/29 00:16:07;;;;;;;61.27;29.97;;;;;;;-0.18;99.85;99383.87;2279826;78;20895;-83
2022/11/29 00:19:07;;;;;;;56.67;28.47;;;;;;;-0.20;99.71;99385.45;2279683;78;20942;-83
2022/11/29 00:22:07;;;;;;;60.20;28.90;;;;;;;-0.22;99.69;99384.47;2280045;78;20907;-84
2022/11/29 00:25:08;;;;;;;60.03;29.67;;;;;;;-0.21;99.50;99387.92;2280342;78;20894;-83
2022/11/29 00:28:08;;;;;;;51.70;27.37;;;;;;;-0.21;99.66;99387.52;2280194;78;20899;-83
2022/11/29 00:31:09;;;;;;;57.50;29.63;;;;;;;-0.18;99.62;99382.98;2280050;78;20909;-83
2022/11/29 00:34:09;;;;;;;59.83;30.40;;;;;;;-0.16;99.46;99386.13;2279899;78;20915;-82
2022/11/29 00:37:09;;;;;;;59.73;29.37;;;;;;;-0.17;99.36;99383.47;2279723;78;20935;-84
2022/11/29 00:40:10;;;;;;;61.40;29.23;;;;;;;-0.19;99.32;99381.20;2279967;78;20903;-85
2022/11/29 00:43:10;;;;;;;63.30;31.00;;;;;;;-0.17;99.42;99376.66;2280064;78;20906;-85
2022/11/29 00:46:11;;;;;;;56.47;28.47;;;;;;;-0.15;99.34;99384.06;2279969;78;20903;-85
2022/11/29 00:49:11;;;;;;;56.30;28.07;;;;;;;-0.12;99.31;99383.36;2280202;78;20903;-84
2022/11/29 00:52:11;;;;;;;62.57;30.13;;;;;;;-0.10;99.20;99380.09;2279997;78;20954;-82
2022/11/29 00:55:12;;;;;;;65.67;31.23;;;;;;;-0.04;99.16;99388.57;2279608;78;20943;-83
2022/11/29 00:58:12;;;;;;;57.30;29.83;;;;;;;0.03;99.23;99383.45;2279607;78;20926;-83
2022/11/29 01:01:13;;;;;;;65.20;30.37;;;;;;;0.05;98.82;99375.45;2279849;78;20934;-84
2022/11/29 01:04:13;;;;;;;63.70;30.80;;;;;;;0.05;98.63;99378.02;2279841;78;20959;-82
2022/11/29 01:07:13;;;;;;;61.40;28.97;;;;;;;0.05;98.60;99371.59;2280023;78;20899;-82
2022/11/29 01:10:14;;;;;;;64.33;30.10;;;;;;;0.05;98.53;99375.45;2279532;78;20934;-83
2022/11/29 01:13:14;;;;;;;56.27;28.17;;;;;;;0.06;98.48;99376.83;2279863;78;20902;-82
2022/11/29 01:16:15;;;;;;;57.20;29.73;;;;;;;0.10;98.57;99367.63;2280324;78;21262;-84
2022/11/29 01:19:15;;;;;;;56.83;29.40;;;;;;;0.13;98.40;99361.41;2279781;78;21302;-84
2022/11/29 01:22:15;;;;;;;61.00;30.50;;;;;;;0.14;98.22;99360.61;2279932;78;20970;-83
2022/11/29 01:25:18;;;;;;;60.23;29.60;;;;;;;0.13;98.15;99352.42;2280403;78;20933;-85
2022/11/29 01:28:16;;;;;;;59.00;30.77;;;;;;;0.09;98.20;99358.16;2280468;78;21259;-85
2022/11/29 01:31:17;;;;;;;60.17;30.20;;;;;;;0.09;98.13;99354.31;2280501;78;20911;-85
2022/11/29 01:34:17;;;;;;;59.63;31.17;;;;;;;0.12;98.28;99346.80;2280268;78;20899;-85
2022/11/29 01:37:18;;;;;;;60.30;29.57;;;;;;;0.22;98.43;99355.54;2278356;78;20911;-84
2022/11/29 01:40:18;;;;;;;61.57;31.07;;;;;;;0.27;98.05;99354.13;2276748;78;20907;-83
2022/11/29 01:43:19;;;;;;;61.07;29.23;;;;;;;0.26;97.84;99354.93;2277113;78;20941;-84
2022/11/29 01:46:19;;;;;;;56.27;29.53;;;;;;;0.29;97.71;99347.41;2276894;78;20907;-85
2022/11/29 01:49:19;;;;;;;60.97;30.60;;;;;;;0.33;97.58;99353.61;2276884;78;20958;-84
2022/11/29 01:52:20;;;;;;;62.73;30.97;;;;;;;0.28;97.16;99350.38;2276540;78;20947;-80
2022/11/29 01:55:20;;;;;;;63.83;29.10;;;;;;;0.22;97.27;99343.59;2276728;78;20911;-84
2022/11/29 01:58:21;;;;;;;59.13;29.70;;;;;;;0.23;97.39;99345.36;2276549;78;20906;-82
2022/11/29 02:01:21;;;;;;;68.10;31.87;;;;;;;0.16;97.10;99348.75;2276643;78;20973;-82
2022/11/29 02:04:21;;;;;;;55.07;29.10;;;;;;;0.09;97.39;99346.21;2276789;78;20886;-84
2022/11/29 02:07:22;;;;;;;60.97;29.77;;;;;;;0.08;97.24;99347.41;2276676;78;20927;-84
2022/11/29 02:10:22;;;;;;;55.03;28.77;;;;;;;0.01;97.45;99339.73;2276683;78;20891;-84
2022/11/29 02:13:23;;;;;;;53.17;28.53;;;;;;;-0.02;97.46;99343.36;2276882;78;20903;-84
2022/11/29 02:16:23;;;;;;;50.07;28.13;;;;;;;-0.03;97.65;99345.43;2276728;78;20930;-83
2022/11/29 02:19:23;;;;;;;56.30;28.23;;;;;;;-0.07;97.77;99339.23;2276752;78;20969;-84
2022/11/29 02:22:24;;;;;;;60.67;28.23;;;;;;;-0.05;97.84;99345.34;2276450;78;20969;-84
2022/11/29 02:25:24;;;;;;;58.70;28.40;;;;;;;0.04;97.92;99344.16;2277039;78;20891;-84
2022/11/29 02:28:25;;;;;;;59.83;27.97;;;;;;;0.08;97.76;99347.41;2276677;78;20895;-83
2022/11/29 02:31:25;;;;;;;56.43;28.80;;;;;;;0.12;97.73;99350.25;2276828;78;20859;-84
2022/11/29 02:34:25;;;;;;;63.07;28.00;;;;;;;0.17;97.58;99350.12;2276957;78;20936;-84
2022/11/29 02:37:26;;;;;;;57.93;29.43;;;;;;;0.22;97.40;99354.25;2276796;78;21346;-83
2022/11/29 02:40:26;;;;;;;58.30;28.97;;;;;;;0.19;97.15;99357.92;2276684;78;20905;-83
2022/11/29 02:43:27;;;;;;;57.80;28.67;;;;;;;0.19;97.36;99360.48;2276229;78;20965;-84
2022/11/29 02:46:27;;;;;;;56.03;27.93;;;;;;;0.22;97.17;99361.95;2276772;78;20926;-84
2022/11/29 02:49:27;;;;;;;50.03;26.93;;;;;;;0.22;96.94;99368.37;2276421;78;20894;-83
2022/11/29 02:52:28;;;;;;;49.00;28.17;;;;;;;0.19;96.80;99364.34;2276484;78;20970;-83
2022/11/29 02:55:28;;;;;;;56.33;27.03;;;;;;;0.17;96.78;99365.53;2276688;78;21259;-84
2022/11/29 02:58:29;;;;;;;56.47;28.50;;;;;;;0.17;96.84;99360.80;2276337;78;20938;-81
2022/11/29 03:01:29;;;;;;;56.77;29.53;;;;;;;0.18;96.81;99368.98;2275949;78;20942;-84
2022/11/29 03:04:30;;;;;;;57.30;29.77;;;;;;;0.23;96.89;99370.15;2276192;78;20906;-83
2022/11/29 03:07:30;;;;;;;54.23;27.60;;;;;;;0.23;96.73;99375.28;2277860;78;20911;-82
2022/11/29 03:10:30;;;;;;;59.00;27.50;;;;;;;0.27;96.69;99374.67;2277023;78;20875;-81
2022/11/29 03:13:31;;;;;;;59.43;27.73;;;;;;;0.21;96.08;99376.48;2276173;78;20930;-82
2022/11/29 03:16:31;;;;;;;56.07;26.27;;;;;;;0.07;95.94;99379.00;2276130;78;20899;-83
2022/11/29 03:19:32;;;;;;;60.17;27.13;;;;;;;-0.03;96.49;99378.41;2276172;78;21329;-83
2022/11/29 03:22:32;;;;;;;56.30;26.67;;;;;;;-0.09;96.70;99393.42;2276434;78;20994;-84
2022/11/29 03:25:32;;;;;;;71.13;26.10;;;;;;;-0.11;96.83;99387.30;2276513;78;20911;-83
2022/11/29 03:28:33;;;;;;;58.17;24.73;;;;;;;-0.17;96.80;99389.49;2276807;78;20898;-82
2022/11/29 03:31:33;;;;;;;50.60;25.40;;;;;;;-0.22;97.01;99383.19;2276712;78;20911;-84
2022/11/29 03:34:34;;;;;;;64.93;27.07;;;;;;;-0.25;97.25;99387.23;2276275;78;20903;-83
2022/11/29 03:37:34;;;;;;;58.97;25.90;;;;;;;-0.29;97.26;99386.55;2276214;78;20974;-83
2022/11/29 03:40:34;;;;;;;54.70;27.97;;;;;;;-0.30;97.38;99385.67;2276397;78;20934;-83
2022/11/29 03:43:35;;;;;;;62.03;26.70;;;;;;;-0.31;97.39;99387.74;2276196;78;20906;-84
2022/11/29 03:46:35;;;;;;;55.70;27.63;;;;;;;-0.32;97.38;99385.97;2276195;78;21311;-82
2022/11/29 03:49:36;;;;;;;51.13;27.13;;;;;;;-0.34;97.61;99397.81;2276384;78;20911;-84
2022/11/29 03:52:36;;;;;;;54.30;27.20;;;;;;;-0.32;97.70;99393.66;2276465;78;20994;-84
2022/11/29 03:55:37;;;;;;;55.00;28.67;;;;;;;-0.26;97.84;99398.30;2276827;78;20930;-85
2022/11/29 03:58:37;;;;;;;50.90;27.40;;;;;;;-0.21;97.85;99405.48;2276102;78;20938;-83
2022/11/29 04:01:37;;;;;;;56.40;26.83;;;;;;;-0.19;97.73;99405.58;2276558;78;20883;-83
2022/11/29 04:04:38;;;;;;;53.57;26.90;;;;;;;-0.20;97.68;99413.67;2276040;78;20966;-83
2022/11/29 04:07:38;;;;;;;50.20;27.50;;;;;;;-0.24;97.81;99406.97;2276457;78;20903;-84
2022/11/29 04:10:39;;;;;;;51.00;26.37;;;;;;;-0.28;97.73;99406.28;2276341;78;20875;-83
2022/11/29 04:13:39;;;;;;;55.27;26.90;;;;;;;-0.29;98.08;99410.53;2276632;78;20938;-84
2022/11/29 04:16:39;;;;;;;55.33;26.03;;;;;;;-0.30;97.91;99415.56;2276390;78;21603;-85
2022/11/29 04:19:40;;;;;;;52.13;26.37;;;;;;;-0.26;98.34;99417.53;2275914;78;20907;-85
2022/11/29 04:22:40;;;;;;;53.33;25.77;;;;;;;-0.26;98.34;99417.53;2275704;78;20954;-84
2022/11/29 04:25:41;;;;;;;53.27;25.83;;;;;;;-0.23;98.16;99417.73;2275610;78;21293;-84
2022/11/29 04:28:41;;;;;;;57.47;26.90;;;;;;;-0.21;98.24;99422.56;2275414;78;20934;-84
2022/11/29 04:31:41;;;;;;;51.33;26.87;;;;;;;-0.23;98.10;99419.90;2275066;78;20937;-84
2022/11/29 04:34:42;;;;;;;52.17;27.67;;;;;;;-0.20;98.15;99417.52;2276246;78;20910;-84
2022/11/29 04:37:42;;;;;;;59.30;27.13;;;;;;;-0.13;98.12;99422.25;2277280;78;20966;-85
2022/11/29 04:40:43;;;;;;;47.47;24.80;;;;;;;-0.06;98.21;99420.55;2279962;78;21226;-84
2022/11/29 04:43:43;;;;;;;51.07;25.97;;;;;;;-0.02;97.83;99421.23;2278993;78;20946;-84
2022/11/29 04:46:43;;;;;;;54.90;29.00;;;;;;;-0.11;97.68;99423.23;2279897;78;20910;-84
2022/11/29 04:49:44;;;;;;;125.23;27.37;;;;;;;-0.16;97.90;99425.91;2279564;78;21334;-82
2022/11/29 04:52:44;;;;;;;53.07;25.10;;;;;;;-0.13;98.10;99427.38;2278965;78;21013;-83
2022/11/29 04:55:45;;;;;;;52.47;26.27;;;;;;;-0.10;98.15;99430.53;2279471;78;20918;-83
2022/11/29 04:58:45;;;;;;;52.20;26.30;;;;;;;-0.06;98.02;99437.23;2278058;78;21306;-81
2022/11/29 05:01:46;;;;;;;53.00;26.80;;;;;;;-0.03;97.91;99440.39;2277640;78;21295;-83
2022/11/29 05:04:46;;;;;;;52.97;27.40;;;;;;;0.01;97.93;99450.09;2277365;78;20899;-82
2022/11/29 05:07:46;;;;;;;52.63;26.80;;;;;;;0.03;97.88;99452.75;2277237;78;20867;-82
2022/11/29 05:10:47;;;;;;;59.90;27.10;;;;;;;0.04;97.81;99446.83;2277433;78;20902;-82
2022/11/29 05:13:47;;;;;;;54.80;26.60;;;;;;;0.07;97.81;99445.73;2277567;78;21275;-78
2022/11/29 05:16:48;;;;;;;52.23;26.37;;;;;;;0.08;97.91;99447.52;2277622;78;20951;-82
2022/11/29 05:19:48;;;;;;;59.53;26.47;;;;;;;0.16;97.95;99445.02;2278148;78;20934;-82
2022/11/29 05:22:49;;;;;;;59.27;26.97;;;;;;;0.16;97.88;99449.76;2277063;78;21410;-82
2022/11/29 05:25:49;;;;;;;56.90;28.37;;;;;;;0.15;97.70;99458.66;2276640;78;20906;-81
2022/11/29 05:28:50;;;;;;;54.90;27.13;;;;;;;0.13;97.77;99461.52;2277094;78;20907;-83
2022/11/29 05:31:50;;;;;;;57.33;27.40;;;;;;;0.13;97.73;99463.69;2277584;78;20915;-83
2022/11/29 05:34:50;;;;;;;58.63;26.57;;;;;;;0.15;97.79;99468.92;2278245;78;21602;-83
2022/11/29 05:37:55;;;;;;;56.10;27.13;;;;;;;0.15;97.79;99468.92;2276991;78;20997;-82
2022/11/29 05:40:53;;;;;;;54.70;26.20;;;;;;;0.14;97.85;99473.56;2254336;78;20899;-83
2022/11/29 05:43:53;;;;;;;51.73;27.70;;;;;;;0.18;97.94;99475.53;2275309;78;20895;-82
2022/11/29 05:46:54;;;;;;;59.13;28.63;;;;;;;0.20;97.99;99475.23;2274849;78;21076;-81
2022/11/29 05:49:54;;;;;;;51.90;27.87;;;;;;;0.25;97.96;99489.24;2274731;78;21322;-81
2022/11/29 05:52:54;;;;;;;54.43;28.50;;;;;;;0.27;97.73;99487.26;2274673;78;20974;-81
2022/11/29 05:55:55;;;;;;;58.33;29.80;;;;;;;0.30;97.75;99489.13;2275850;78;20934;-82
2022/11/29 05:58:55;;;;;;;56.50;28.27;;;;;;;0.32;97.83;99488.83;2274398;78;21001;-81
2022/11/29 06:01:56;;;;;;;53.43;27.67;;;;;;;0.34;97.65;99491.49;2274769;78;20946;-82
2022/11/29 06:04:56;;;;;;;52.93;27.87;;;;;;;0.34;97.46;99491.09;2274683;78;20903;-80
2022/11/29 06:07:56;;;;;;;56.23;28.20;;;;;;;0.41;97.80;99500.95;2275265;78;20879;-83
2022/11/29 06:10:58;;;;;;;52.00;28.07;;;;;;;0.47;97.61;99501.33;2274105;78;20998;-82
2022/11/29 06:13:57;;;;;;;50.97;27.43;;;;;;;0.43;96.92;99501.05;2274300;78;21316;-82
2022/11/29 06:16:58;;;;;;;46.03;27.33;;;;;;;0.37;97.00;99502.84;2274229;78;20911;-83
2022/11/29 06:19:58;;;;;;;48.43;25.40;;;;;;;0.32;97.13;99506.80;2274166;78;20962;-83
2022/11/29 06:23:00;;;;;;;48.30;26.40;;;;;;;0.30;97.12;99505.82;2274513;78;21006;-83
2022/11/29 06:25:59;;;;;;;51.73;27.07;;;;;;;0.31;97.48;99507.59;2274450;78;20919;-83
2022/11/29 06:29:00;;;;;;;51.20;26.93;;;;;;;0.29;97.35;99509.18;2274064;78;21236;-82
2022/11/29 06:32:00;;;;;;;52.93;27.97;;;;;;;0.29;97.53;99520.73;2273621;78;20926;-82
2022/11/29 06:35:00;;;;;;;49.57;28.67;;;;;;;0.28;97.61;99518.56;2273286;78;20887;-83
2022/11/29 06:38:01;;;;;;;54.70;27.20;;;;;;;0.28;97.61;99521.53;2274510;78;20943;-82
2022/11/29 06:41:01;;;;;;;55.43;28.07;;;;;;;0.30;97.73;99522.12;2278006;78;20914;-83
2022/11/29 06:44:01;;;;;;;49.40;27.17;;;;;;;0.36;97.65;99528.03;2278640;78;20938;-83
2022/11/29 06:47:03;;;;;;;47.13;26.87;;;;;;;0.40;97.58;99525.26;2278040;78;21075;-83
2022/11/29 06:50:03;;;;;;;53.17;26.20;;;;;;;0.39;97.31;99524.38;2279783;78;20903;-81
2022/11/29 06:53:03;;;;;;;53.73;27.37;;;;;;;0.43;97.52;99534.05;2277891;78;20927;-84
2022/11/29 06:56:04;;;;;;;58.73;27.80;;;;;;;0.47;97.34;99536.01;2278873;78;20869;-84
2022/11/29 06:59:04;;;;;;;51.23;26.67;;;;;;;1.26;99.68;99535.73;2277349;78;20954;-84
2022/11/29 07:02:05;;;;;;;57.27;26.73;;;;;;;1.20;96.33;99538.34;2277170;78;20926;-83
2022/11/29 07:05:05;;;;;;;52.00;27.73;;;;;;;1.14;96.57;99537.58;2276981;78;20965;-82
2022/11/29 07:08:06;;;;;;;61.33;27.50;;;;;;;1.03;95.45;99539.91;2276739;78;20907;-84
2022/11/29 07:11:06;;;;;;;48.03;25.93;;;;;;;0.94;95.60;99536.38;2277015;78;20951;-86
2022/11/29 07:14:06;;;;;;;51.37;27.47;;;;;;;0.85;95.25;99538.76;2277539;78;20934;-84
2022/11/29 07:17:07;;;;;;;44.70;24.90;;;;;;;0.85;96.51;99543.90;2278272;78;20895;-84
2022/11/29 07:20:07;;;;;;;67.83;27.17;;;;;;;0.91;95.82;99546.48;2278206;78;20923;-84
2022/11/29 07:23:08;;;;;;;44.87;25.57;;;;;;;0.77;95.05;99546.00;2278108;78;21389;-84
2022/11/29 07:26:08;;;;;;;45.53;25.93;;;;;;;0.71;95.40;99544.34;2277750;78;20903;-84
2022/11/29 07:29:09;;;;;;;46.57;25.27;;;;;;;0.72;95.71;99552.94;2277761;78;20933;-84
2022/11/29 07:32:09;;;;;;;48.60;26.87;;;;;;;0.76;95.45;99551.05;2277872;78;20965;-84
2022/11/29 07:35:09;;;;;;;44.37;26.83;;;;;;;0.78;95.57;99553.31;2276916;78;21283;-84
2022/11/29 07:38:10;;;;;;;55.40;26.97;;;;;;;0.73;95.42;99550.86;2263718;78;20962;-83
2022/11/29 07:41:10;;;;;;;48.07;26.63;;;;;;;0.68;95.49;99548.01;2232547;79;20879;-86
2022/11/29 07:44:10;;;;;;;57.13;27.80;;;;;;;0.73;95.84;99554.72;2233043;79;20969;-82
2022/11/29 07:47:11;;;;;;;48.37;27.83;;;;;;;0.80;95.92;99555.19;2233086;79;20938;-83
2022/11/29 07:50:11;;;;;;;72.23;31.10;;;;;;;0.85;95.83;99558.92;2232125;79;20898;-84
2022/11/29 07:53:12;;;;;;;51.07;28.03;;;;;;;0.85;95.67;99559.31;2231750;79;20962;-83
2022/11/29 07:56:15;;;;;;;52.93;27.23;;;;;;;0.88;95.56;99564.28;2232273;80;20952;-83
2022/11/29 07:59:13;;;;;;;47.63;25.57;;;;;;;0.94;95.50;99567.63;2231498;79;20941;-83
2022/11/29 08:02:13;;;;;;;46.90;25.13;;;;;;;0.95;94.96;99568.11;2231700;79;21298;-83
2022/11/29 08:05:13;;;;;;;48.93;26.67;;;;;;;0.95;95.11;99580.97;2232872;78;20917;-83
2022/11/29 08:08:14;;;;;;;48.50;25.70;;;;;;;0.92;94.68;99575.64;2232234;80;21001;-83
2022/11/29 08:11:14;;;;;;;48.50;26.83;;;;;;;0.93;94.55;99576.13;2232799;79;20922;-84
2022/11/29 08:14:14;;;;;;;47.00;25.60;;;;;;;0.92;94.65;99582.06;2231906;79;20917;-83
2022/11/29 08:17:15;;;;;;;49.87;25.97;;;;;;;0.91;94.56;99572.58;2232277;78;20922;-82
2022/11/29 08:20:15;;;;;;;51.20;28.87;;;;;;;0.90;94.54;99580.69;2233335;78;20925;-82
2022/11/29 08:23:16;;;;;;;57.33;28.23;;;;;;;0.93;94.64;99576.13;2232078;79;20997;-82
2022/11/29 08:26:16;;;;;;;54.13;28.23;;;;;;;0.99;94.51;99570.47;2231930;79;20890;-84
2022/11/29 08:29:17;;;;;;;52.20;26.97;;;;;;;0.97;93.97;99572.95;2232321;80;20906;-83
2022/11/29 08:32:17;;;;;;;51.10;27.40;;;;;;;0.91;93.94;99579.00;2232897;80;20945;-81
2022/11/29 08:35:17;;;;;;;48.90;26.63;;;;;;;0.90;94.19;99579.41;2232138;79;21393;-83
2022/11/29 08:38:18;;;;;;;49.43;27.17;;;;;;;0.94;94.40;99583.05;2232208;78;21378;-82
2022/11/29 08:41:18;;;;;;;54.40;28.23;;;;;;;0.99;94.28;99584.22;2232315;79;21298;-82
2022/11/29 08:44:19;;;;;;;50.97;26.63;;;;;;;1.03;94.24;99586.18;2232184;79;20922;-82
2022/11/29 08:47:34;;;;;;;49.87;27.37;;;;;;;1.07;93.81;99584.28;2231927;80;20878;-83
2022/11/29 08:50:35;;;;;;;47.77;25.83;;;;;;;1.10;93.79;99583.19;2232144;79;21317;-83
2022/11/29 08:53:41;;;;;;;44.63;25.73;;;;;;;1.15;93.89;99585.64;2231392;79;20973;-84
2022/11/29 08:56:41;;;;;;;52.50;26.47;;;;;;;1.25;93.75;99586.68;2232300;79;20913;-83
2022/11/29 08:59:43;;;;;;;47.30;26.47;;;;;;;1.26;93.15;99587.17;2231932;79;20965;-83
2022/11/29 09:02:42;;;;;;;51.83;27.93;;;;;;;1.32;92.96;99587.05;2231968;79;20946;-84
2022/11/29 09:05:43;;;;;;;50.73;27.20;;;;;;;1.31;92.76;99582.30;2232199;79;20918;-82
2022/11/29 09:08:43;;;;;;;45.73;26.63;;;;;;;1.37;92.84;99585.64;2231197;79;20918;-84
2022/11/29 09:11:44;;;;;;;47.47;27.00;;;;;;;1.43;92.53;99583.42;2232175;79;20922;-82
2022/11/29 09:14:44;;;;;;;50.33;27.80;;;;;;;1.49;92.38;99582.50;2232116;79;20953;-82
2022/11/29 09:17:44;;;;;;;51.50;27.73;;;;;;;1.52;92.19;99590.00;2232224;80;20973;-83
2022/11/29 09:20:45;;;;;;;47.07;27.83;;;;;;;1.48;91.23;99585.88;2232000;79;20949;-82
2022/11/29 09:23:45;;;;;;;45.33;26.73;;;;;;;1.49;91.75;99586.36;2231761;79;20969;-84
2022/11/29 09:26:47;;;;;;;48.03;25.93;;;;;;;1.53;91.42;99587.03;2232017;79;21369;-84
2022/11/29 09:29:46;;;;;;;50.63;27.70;;;;;;;1.56;91.12;99588.50;2232317;80;20910;-83
2022/11/29 09:32:47;;;;;;;47.90;26.80;;;;;;;1.53;90.46;99589.20;2231580;79;20913;-84
2022/11/29 09:35:47;;;;;;;51.13;27.97;;;;;;;1.57;91.09;99592.84;2232061;80;20926;-84
2022/11/29 09:38:47;;;;;;;54.43;27.97;;;;;;;1.54;90.81;99585.83;2248110;78;21343;-82
2022/11/29 09:41:48;;;;;;;52.73;29.83;;;;;;;1.54;90.81;99585.83;2276878;78;20925;-83
2022/11/29 09:44:48;;;;;;;47.17;27.27;;;;;;;1.57;90.99;99583.84;2277180;78;20931;-83
2022/11/29 09:47:49;;;;;;;54.30;27.53;;;;;;;1.58;90.78;99583.05;2277998;78;20910;-85
2022/11/29 09:50:49;;;;;;;53.73;28.97;;;;;;;1.58;90.42;99586.50;2278345;78;20891;-83
2022/11/29 09:53:52;;;;;;;53.23;27.23;;;;;;;1.56;90.57;99582.06;2277969;78;21409;-84
2022/11/29 09:56:53;;;;;;;49.70;28.43;;;;;;;1.59;90.79;99584.42;2257615;78;20910;-84
2022/11/29 09:59:52;;;;;;;52.03;28.43;;;;;;;1.65;90.50;99583.89;2277761;78;21263;-84
2022/11/29 10:02:53;;;;;;;50.90;28.87;;;;;;;1.67;90.21;99585.27;2278134;78;20914;-84
2022/11/29 10:05:53;;;;;;;60.27;30.67;;;;;;;1.73;90.47;99586.52;2278785;78;20887;-85
2022/11/29 10:08:54;;;;;;;55.33;31.20;;;;;;;1.78;90.45;99590.67;2278516;78;20923;-85
2022/11/29 10:11:54;;;;;;;57.53;29.80;;;;;;;1.82;89.98;99589.66;2278433;78;20914;-83
2022/11/29 10:14:54;;;;;;;53.83;30.20;;;;;;;1.87;90.40;99584.77;2277815;78;21334;-84
2022/11/29 10:17:55;;;;;;;54.50;30.83;;;;;;;1.99;90.46;99585.88;2277792;78;20914;-84
2022/11/29 10:20:57;;;;;;;53.67;30.87;;;;;;;1.97;89.37;99584.50;2278236;78;20951;-84
2022/11/29 10:23:56;;;;;;;56.67;31.47;;;;;;;1.85;89.53;99582.50;2277174;78;21351;-82
2022/11/29 10:26:56;;;;;;;54.70;31.37;;;;;;;1.91;89.91;99581.56;2276651;78;21329;-83
2022/11/29 10:29:58;;;;;;;49.87;28.63;;;;;;;2.04;89.48;99578.00;2276867;78;20914;-81
2022/11/29 10:32:57;;;;;;;58.77;28.13;;;;;;;2.14;89.16;99580.30;2277707;78;20918;-83
2022/11/29 10:35:57;;;;;;;48.07;28.20;;;;;;;2.12;88.56;99578.92;2277646;78;20907;-84
2022/11/29 10:38:58;;;;;;;49.67;29.73;;;;;;;2.16;87.99;99573.14;2262383;78;21346;-84
2022/11/29 10:41:58;;;;;;;50.87;28.97;;;;;;;2.20;88.12;99576.38;2231871;79;21313;-84
2022/11/29 10:44:59;;;;;;;52.03;30.63;;;;;;;2.18;87.16;99572.83;2231576;79;20977;-82
2022/11/29 10:47:59;;;;;;;53.00;29.50;;;;;;;2.20;87.70;99571.63;2232301;79;20894;-84
2022/11/29 10:50:59;;;;;;;46.80;29.00;;;;;;;2.21;87.62;99574.69;2232456;79;20917;-84
2022/11/29 10:54:00;;;;;;;50.83;28.37;;;;;;;2.26;87.62;99577.13;2232483;79;21719;-83
2022/11/29 10:57:00;;;;;;;62.63;30.13;;;;;;;2.27;87.39;99572.45;2232636;79;20953;-83
2022/11/29 11:00:01;;;;;;;59.60;29.33;;;;;;;2.35;87.73;99567.73;2233053;79;20910;-84
2022/11/29 11:03:01;;;;;;;57.50;30.90;;;;;;;2.41;87.92;99562.92;2233160;79;20934;-85
2022/11/29 11:06:02;;;;;;;47.53;27.87;;;;;;;2.51;87.90;99563.91;2233263;79;20914;-84
2022/11/29 11:09:02;;;;;;;46.10;27.93;;;;;;;2.55;86.91;99565.45;2233869;79;21255;-84
2022/11/29 11:12:02;;;;;;;50.43;30.00;;;;;;;2.50;86.08;99562.13;2233626;80;20930;-85
2022/11/29 11:15:03;;;;;;;54.80;27.67;;;;;;;2.43;86.33;99564.78;2233447;79;21329;-82
2022/11/29 11:18:03;;;;;;;42.53;26.63;;;;;;;2.41;86.49;99567.67;2232575;79;20977;-84
2022/11/29 11:21:03;;;;;;;51.67;30.03;;;;;;;2.45;85.81;99564.45;2232658;79;20949;-83
2022/11/29 11:24:04;;;;;;;47.80;28.83;;;;;;;2.37;86.02;99567.42;2232766;78;21055;-82
2022/11/29 11:27:04;;;;;;;56.57;28.23;;;;;;;2.29;85.87;99569.56;2232629;80;21326;-83
2022/11/29 11:30:05;;;;;;;47.23;27.97;;;;;;;3.64;100.00;99565.66;2232307;79;20945;-83
2022/11/29 11:33:05;;;;;;;43.93;26.93;;;;;;;3.89;88.04;99563.89;2231776;79;20950;-82
2022/11/29 11:36:06;;;;;;;51.23;28.13;;;;;;;3.48;84.85;99567.87;2232961;79;20918;-82
2022/11/29 11:39:06;;;;;;;53.07;28.53;;;;;;;3.03;85.06;99570.61;2246196;78;21307;-83
2022/11/29 11:45:26;;;;;;;43.23;28.10;;;;;;;2.69;85.27;99576.95;2277249;78;21007;-82
2022/11/29 11:48:26;;;;;;;47.50;28.47;;;;;;;2.54;85.16;99575.27;2277464;78;20961;-82
2022/11/29 11:51:26;;;;;;;46.93;26.47;;;;;;;2.45;85.81;99581.20;2277353;78;20922;-82
2022/11/29 11:54:26;;;;;;;42.60;25.20;;;;;;;2.30;85.20;99581.64;2278113;78;20986;-82
2022/11/29 11:57:27;;;;;;;48.00;25.93;;;;;;;2.11;85.88;99590.03;2277163;78;21649;-83
2022/11/29 12:00:27;;;;;;;52.23;27.47;;;;;;;2.13;86.40;99591.41;2278633;78;20918;-81
2022/11/29 12:03:28;;;;;;;57.03;26.87;;;;;;;2.13;86.74;99589.72;2278284;78;20967;-85
2022/11/29 12:06:31;;;;;;;44.20;27.03;;;;;;;2.15;86.69;99587.22;2277812;78;21311;-83
2022/11/29 12:09:37;;;;;;;42.57;27.00;;;;;;;2.21;86.91;99592.33;2277742;78;20933;-82
2022/11/29 12:12:37;;;;;;;44.47;25.20;;;;;;;2.21;86.97;99585.88;2277309;78;21305;-82
2022/11/29 12:15:38;;;;;;;155.33;31.40;;;;;;;2.20;86.75;99588.38;2277511;78;20955;-81
2022/11/29 12:18:38;;;;;;;45.47;25.83;;;;;;;2.19;86.69;99589.17;2277432;78;20954;-83
2022/11/29 12:21:38;;;;;;;58.40;27.63;;;;;;;2.14;86.77;99597.04;2277532;78;20915;-82
2022/11/29 12:24:39;;;;;;;47.73;25.97;;;;;;;2.04;86.63;99593.45;2277172;78;20992;-82
2022/11/29 12:27:39;;;;;;;48.13;27.60;;;;;;;1.99;86.38;99597.06;2278588;78;20914;-82
2022/11/29 12:30:40;;;;;;;48.33;27.23;;;;;;;1.89;86.67;99601.19;2278522;78;20954;-83
2022/11/29 12:33:40;;;;;;;58.50;31.07;;;;;;;1.85;87.02;99598.84;2278532;78;20906;-85
2022/11/29 12:36:41;;;;;;;45.50;28.10;;;;;;;1.83;86.89;99594.40;2278214;78;20879;-83
2022/11/29 12:39:41;;;;;;;58.37;26.97;;;;;;;1.76;86.69;99603.45;2278149;78;20941;-81
2022/11/29 12:42:41;;;;;;;45.00;26.60;;;;;;;1.70;87.24;99601.77;2277156;78;20953;-81
2022/11/29 12:45:42;;;;;;;46.03;25.77;;;;;;;1.58;86.75;99602.34;2276754;78;21601;-81
2022/11/29 12:48:42;;;;;;;50.47;26.60;;;;;;;1.54;87.45;99599.09;2277303;78;21382;-81
2022/11/29 12:51:42;;;;;;;46.50;26.83;;;;;;;1.53;87.55;99610.19;2276264;78;20925;-82
2022/11/29 12:54:43;;;;;;;53.30;27.27;;;;;;;1.45;87.59;99609.73;2277060;78;20974;-82
2022/11/29 12:57:43;;;;;;;47.70;27.73;;;;;;;1.39;88.08;99602.94;2276689;78;20954;-82
2022/11/29 13:00:44;;;;;;;50.63;29.70;;;;;;;1.40;88.27;99606.39;2277702;78;20942;-82
2022/11/29 13:03:44;;;;;;;48.73;27.90;;;;;;;1.40;88.58;99602.14;2277031;78;20946;-82
2022/11/29 13:06:45;;;;;;;46.07;26.13;;;;;;;1.46;88.79;99609.33;2276427;78;20891;-81
2022/11/29 13:09:45;;;;;;;51.57;29.00;;;;;;;1.55;89.13;99608.20;2276724;78;21290;-81
2022/11/29 13:12:46;;;;;;;223.53;36.93;;;;;;;1.65;88.99;99607.45;2275852;78;20961;-78
2022/11/29 13:15:46;;;;;;;61.73;29.07;;;;;;;1.69;88.57;99606.43;2276615;78;20895;-83
2022/11/29 13:18:46;;;;;;;59.13;28.30;;;;;;;1.75;88.48;99604.25;2276302;78;20918;-81
2022/11/29 13:21:47;;;;;;;48.70;27.63;;;;;;;1.77;87.93;99610.38;2275316;78;20942;-82
2022/11/29 13:24:47;;;;;;;54.33;28.40;;;;;;;1.73;87.76;99617.39;2274669;78;20970;-84
2022/11/29 13:27:48;;;;;;;46.40;26.97;;;;;;;1.74;88.17;99620.49;2275517;78;20918;-82
2022/11/29 13:30:48;;;;;;;41.40;26.57;;;;;;;1.74;87.87;99620.89;2275836;78;20919;-81
2022/11/29 13:33:48;;;;;;;49.10;27.17;;;;;;;1.69;87.79;99622.27;2276058;78;21744;-81
2022/11/29 13:36:49;;;;;;;44.33;27.17;;;;;;;1.68;87.88;99625.25;2276147;78;21615;-83
2022/11/29 13:39:49;;;;;;;45.77;27.83;;;;;;;1.68;87.95;99626.53;2276814;78;20947;-83
2022/11/29 13:42:50;;;;;;;61.80;29.50;;;;;;;1.64;87.83;99627.15;2277628;78;20911;-82
2022/11/29 13:45:50;;;;;;;46.00;26.53;;;;;;;1.62;87.98;99631.72;2277730;78;20943;-82
2022/11/29 13:48:51;;;;;;;117.77;31.07;;;;;;;1.58;87.94;99634.51;2278454;78;20894;-81
2022/11/29 13:51:51;;;;;;;46.03;26.90;;;;;;;1.56;88.34;99638.67;2277737;78;21519;-83
2022/11/29 13:54:51;;;;;;;45.73;27.10;;;;;;;1.62;88.18;99641.61;2277562;78;20970;-81
2022/11/29 13:57:52;;;;;;;57.33;20.20;;;;;;;1.58;88.22;99640.94;2277401;78;20946;-83
2022/11/29 14:00:52;;;;;;;41.00;24.13;;;;;;;2.87;100.00;99637.24;2277908;78;21360;-82